sensor_id;sensor_type;location;lat;lon;timestamp;pressure;altitude;pressure_sealevel;temperature;humidity
63097;BME280;49185;42.320;23.198;2024-01-15T00:02:13;94423.66;;;-7.26;100.00
63097;BME280;49185;42.320;23.198;2024-01-15T00:04:38;94429.56;;;-7.34;100.00
63097;BME280;49185;42.320;23.198;2024-01-15T00:07:05;94426.41;;;-7.28;100.00
63097;BME280;49185;42.320;23.198;2024-01-15T00:09:30;94431.84;;;-7.31;100.00
63097;BME280;49185;42.320;23.198;2024-01-15T00:11:55;94422.22;;;-7.38;100.00
63097;BME280;49185;42.320;23.198;2024-01-15T00:14:21;94431.72;;;-7.29;100.00
63097;BME280;49185;42.320;23.198;2024-01-15T00:16:46;94427.50;;;-7.30;100.00
63097;BME280;49185;42.320;23.198;2024-01-15T00:19:12;94413.09;;;-7.33;100.00
63097;BME280;49185;42.320;23.198;2024-01-15T00:21:38;94421.81;;;-7.34;100.00
63097;BME280;49185;42.320;23.198;2024-01-15T00:24:03;94422.31;;;-7.30;100.00
63097;BME280;49185;42.320;23.198;2024-01-15T00:26:29;94417.44;;;-7.33;100.00
63097;BME280;49185;42.320;23.198;2024-01-15T00:28:54;94413.31;;;-7.44;100.00
63097;BME280;49185;42.320;23.198;2024-01-15T00:31:19;94416.09;;;-7.55;100.00
63097;BME280;49185;42.320;23.198;2024-01-15T00:33:45;94410.72;;;-7.44;100.00
63097;BME280;49185;42.320;23.198;2024-01-15T00:36:11;94415.09;;;-7.45;100.00
63097;BME280;49185;42.320;23.198;2024-01-15T00:38:36;94417.81;;;-7.46;100.00
63097;BME280;49185;42.320;23.198;2024-01-15T00:41:02;94425.41;;;-7.45;100.00
63097;BME280;49185;42.320;23.198;2024-01-15T00:43:27;94426.16;;;-7.34;100.00
63097;BME280;49185;42.320;23.198;2024-01-15T00:45:52;94428.09;;;-7.18;100.00
63097;BME280;49185;42.320;23.198;2024-01-15T00:48:18;94424.22;;;-7.50;100.00
63097;BME280;49185;42.320;23.198;2024-01-15T00:50:43;94437.94;;;-7.68;100.00
63097;BME280;49185;42.320;23.198;2024-01-15T00:53:08;94427.88;;;-7.71;100.00
63097;BME280;49185;42.320;23.198;2024-01-15T00:55:34;94424.78;;;-7.74;100.00
63097;BME280;49185;42.320;23.198;2024-01-15T00:57:59;94421.00;;;-7.80;100.00
63097;BME280;49185;42.320;23.198;2024-01-15T01:00:25;94425.13;;;-7.97;100.00
63097;BME280;49185;42.320;23.198;2024-01-15T01:02:50;94416.56;;;-7.88;100.00
63097;BME280;49185;42.320;23.198;2024-01-15T01:05:15;94419.31;;;-7.99;100.00
63097;BME280;49185;42.320;23.198;2024-01-15T01:07:41;94420.50;;;-7.93;100.00
63097;BME280;49185;42.320;23.198;2024-01-15T01:10:06;94412.16;;;-8.05;100.00
63097;BME280;49185;42.320;23.198;2024-01-15T01:12:32;94422.13;;;-8.20;100.00
63097;BME280;49185;42.320;23.198;2024-01-15T01:14:57;94423.22;;;-8.23;100.00
63097;BME280;49185;42.320;23.198;2024-01-15T01:17:23;94425.28;;;-8.26;100.00
63097;BME280;49185;42.320;23.198;2024-01-15T01:19:49;94425.00;;;-8.23;100.00
63097;BME280;49185;42.320;23.198;2024-01-15T01:22:15;94405.41;;;-8.16;100.00
63097;BME280;49185;42.320;23.198;2024-01-15T01:24:40;94406.63;;;-8.20;100.00
63097;BME280;49185;42.320;23.198;2024-01-15T01:27:05;94409.44;;;-8.04;100.00
63097;BME280;49185;42.320;23.198;2024-01-15T01:29:31;94405.63;;;-8.09;100.00
63097;BME280;49185;42.320;23.198;2024-01-15T01:31:56;94418.44;;;-8.17;100.00
63097;BME280;49185;42.320;23.198;2024-01-15T01:34:22;94418.22;;;-7.96;100.00
63097;BME280;49185;42.320;23.198;2024-01-15T01:36:47;94418.53;;;-8.09;100.00
63097;BME280;49185;42.320;23.198;2024-01-15T01:39:13;94421.97;;;-8.18;100.00
63097;BME280;49185;42.320;23.198;2024-01-15T01:41:38;94417.72;;;-8.10;100.00
63097;BME280;49185;42.320;23.198;2024-01-15T01:44:04;94420.03;;;-8.07;100.00
63097;BME280;49185;42.320;23.198;2024-01-15T01:46:30;94414.25;;;-7.91;100.00
63097;BME280;49185;42.320;23.198;2024-01-15T01:48:56;94407.03;;;-8.15;100.00
63097;BME280;49185;42.320;23.198;2024-01-15T01:51:24;94409.53;;;-8.23;100.00
63097;BME280;49185;42.320;23.198;2024-01-15T01:53:50;94406.34;;;-8.17;100.00
63097;BME280;49185;42.320;23.198;2024-01-15T01:56:17;94392.19;;;-8.13;100.00
63097;BME280;49185;42.320;23.198;2024-01-15T01:58:44;94393.13;;;-8.04;100.00
63097;BME280;49185;42.320;23.198;2024-01-15T02:01:11;94384.56;;;-8.05;100.00
63097;BME280;49185;42.320;23.198;2024-01-15T02:03:37;94386.34;;;-8.05;100.00
63097;BME280;49185;42.320;23.198;2024-01-15T02:06:02;94384.56;;;-8.05;100.00
63097;BME280;49185;42.320;23.198;2024-01-15T02:08:27;94380.25;;;-7.86;100.00
63097;BME280;49185;42.320;23.198;2024-01-15T02:10:53;94382.00;;;-7.77;100.00
63097;BME280;49185;42.320;23.198;2024-01-15T02:13:20;94375.09;;;-7.86;100.00
63097;BME280;49185;42.320;23.198;2024-01-15T02:15:45;94371.25;;;-8.00;100.00
63097;BME280;49185;42.320;23.198;2024-01-15T02:18:11;94360.41;;;-8.04;100.00
63097;BME280;49185;42.320;23.198;2024-01-15T02:20:36;94355.13;;;-8.12;100.00
63097;BME280;49185;42.320;23.198;2024-01-15T02:23:12;94352.84;;;-8.15;100.00
63097;BME280;49185;42.320;23.198;2024-01-15T02:25:40;94328.16;;;-7.99;100.00
63097;BME280;49185;42.320;23.198;2024-01-15T02:28:06;94324.34;;;-7.95;100.00
63097;BME280;49185;42.320;23.198;2024-01-15T02:30:31;94323.16;;;-7.83;100.00
63097;BME280;49185;42.320;23.198;2024-01-15T02:32:57;94323.03;;;-7.82;100.00
63097;BME280;49185;42.320;23.198;2024-01-15T02:35:22;94326.06;;;-7.68;100.00
63097;BME280;49185;42.320;23.198;2024-01-15T02:37:47;94325.91;;;-7.67;100.00
63097;BME280;49185;42.320;23.198;2024-01-15T02:40:13;94320.81;;;-7.40;100.00
63097;BME280;49185;42.320;23.198;2024-01-15T02:42:38;94305.03;;;-7.55;100.00
63097;BME280;49185;42.320;23.198;2024-01-15T02:45:04;94301.19;;;-7.51;100.00
63097;BME280;49185;42.320;23.198;2024-01-15T02:47:30;94298.75;;;-7.53;100.00
63097;BME280;49185;42.320;23.198;2024-01-15T02:49:56;94289.41;;;-7.54;100.00
63097;BME280;49185;42.320;23.198;2024-01-15T02:52:21;94294.06;;;-7.57;100.00
63097;BME280;49185;42.320;23.198;2024-01-15T02:54:46;94290.13;;;-7.61;100.00
63097;BME280;49185;42.320;23.198;2024-01-15T02:57:12;94278.47;;;-7.66;100.00
63097;BME280;49185;42.320;23.198;2024-01-15T02:59:37;94269.56;;;-7.71;100.00
63097;BME280;49185;42.320;23.198;2024-01-15T03:02:02;94283.50;;;-7.64;100.00
63097;BME280;49185;42.320;23.198;2024-01-15T03:04:28;94286.06;;;-7.46;100.00
63097;BME280;49185;42.320;23.198;2024-01-15T03:06:53;94287.63;;;-7.53;100.00
63097;BME280;49185;42.320;23.198;2024-01-15T03:09:19;94280.53;;;-7.87;100.00
63097;BME280;49185;42.320;23.198;2024-01-15T03:11:44;94272.28;;;-7.91;100.00
63097;BME280;49185;42.320;23.198;2024-01-15T03:14:09;94276.56;;;-7.99;100.00
63097;BME280;49185;42.320;23.198;2024-01-15T03:16:35;94274.09;;;-8.19;100.00
63097;BME280;49185;42.320;23.198;2024-01-15T03:19:01;94279.28;;;-8.29;100.00
63097;BME280;49185;42.320;23.198;2024-01-15T03:21:26;94279.56;;;-8.50;100.00
63097;BME280;49185;42.320;23.198;2024-01-15T03:23:51;94277.31;;;-8.53;100.00
63097;BME280;49185;42.320;23.198;2024-01-15T03:26:18;94276.00;;;-8.67;100.00
63097;BME280;49185;42.320;23.198;2024-01-15T03:28:43;94276.19;;;-8.78;100.00
63097;BME280;49185;42.320;23.198;2024-01-15T03:31:09;94273.88;;;-8.81;100.00
63097;BME280;49185;42.320;23.198;2024-01-15T03:33:34;94267.34;;;-8.75;100.00
63097;BME280;49185;42.320;23.198;2024-01-15T03:35:59;94282.41;;;-8.71;100.00
63097;BME280;49185;42.320;23.198;2024-01-15T03:38:27;94278.66;;;-8.86;100.00
63097;BME280;49185;42.320;23.198;2024-01-15T03:40:53;94286.78;;;-8.81;100.00
63097;BME280;49185;42.320;23.198;2024-01-15T03:43:18;94283.34;;;-8.72;100.00
63097;BME280;49185;42.320;23.198;2024-01-15T03:45:44;94287.59;;;-8.81;100.00
63097;BME280;49185;42.320;23.198;2024-01-15T03:48:09;94285.53;;;-8.77;100.00
63097;BME280;49185;42.320;23.198;2024-01-15T03:50:34;94287.84;;;-8.74;100.00
63097;BME280;49185;42.320;23.198;2024-01-15T03:53:00;94285.00;;;-8.81;100.00
63097;BME280;49185;42.320;23.198;2024-01-15T03:55:25;94283.66;;;-8.85;100.00
63097;BME280;49185;42.320;23.198;2024-01-15T03:57:50;94292.47;;;-8.87;100.00
63097;BME280;49185;42.320;23.198;2024-01-15T04:00:16;94285.97;;;-8.82;100.00
63097;BME280;49185;42.320;23.198;2024-01-15T04:02:41;94281.03;;;-8.75;100.00
63097;BME280;49185;42.320;23.198;2024-01-15T04:05:07;94294.66;;;-8.83;100.00
63097;BME280;49185;42.320;23.198;2024-01-15T04:07:32;94282.44;;;-8.81;100.00
63097;BME280;49185;42.320;23.198;2024-01-15T04:09:57;94268.94;;;-8.65;100.00
63097;BME280;49185;42.320;23.198;2024-01-15T04:12:23;94263.88;;;-8.56;100.00
63097;BME280;49185;42.320;23.198;2024-01-15T04:14:48;94249.47;;;-8.49;100.00
63097;BME280;49185;42.320;23.198;2024-01-15T04:17:14;94254.03;;;-8.43;100.00
63097;BME280;49185;42.320;23.198;2024-01-15T04:19:39;94256.91;;;-8.28;100.00
63097;BME280;49185;42.320;23.198;2024-01-15T04:22:04;94249.84;;;-8.26;100.00
63097;BME280;49185;42.320;23.198;2024-01-15T04:24:31;94233.75;;;-8.38;100.00
63097;BME280;49185;42.320;23.198;2024-01-15T04:26:57;94230.34;;;-8.56;100.00
63097;BME280;49185;42.320;23.198;2024-01-15T04:29:22;94244.66;;;-8.62;100.00
63097;BME280;49185;42.320;23.198;2024-01-15T04:31:47;94239.31;;;-8.61;100.00
63097;BME280;49185;42.320;23.198;2024-01-15T04:34:13;94233.59;;;-8.54;100.00
63097;BME280;49185;42.320;23.198;2024-01-15T04:36:39;94232.09;;;-8.57;100.00
63097;BME280;49185;42.320;23.198;2024-01-15T04:39:05;94229.31;;;-8.64;100.00
63097;BME280;49185;42.320;23.198;2024-01-15T04:41:30;94224.53;;;-8.58;100.00
63097;BME280;49185;42.320;23.198;2024-01-15T04:43:56;94229.06;;;-8.43;100.00
63097;BME280;49185;42.320;23.198;2024-01-15T04:46:21;94240.19;;;-8.24;100.00
63097;BME280;49185;42.320;23.198;2024-01-15T04:48:46;94233.75;;;-8.38;100.00
63097;BME280;49185;42.320;23.198;2024-01-15T04:51:12;94245.56;;;-8.35;100.00
63097;BME280;49185;42.320;23.198;2024-01-15T04:53:37;94240.78;;;-8.30;100.00
63097;BME280;49185;42.320;23.198;2024-01-15T04:56:03;94235.81;;;-8.24;100.00
63097;BME280;49185;42.320;23.198;2024-01-15T04:58:28;94227.84;;;-8.48;100.00
63097;BME280;49185;42.320;23.198;2024-01-15T05:00:54;94239.28;;;-8.51;100.00
63097;BME280;49185;42.320;23.198;2024-01-15T05:03:19;94239.03;;;-8.40;100.00
63097;BME280;49185;42.320;23.198;2024-01-15T05:05:45;94231.13;;;-8.28;100.00
63097;BME280;49185;42.320;23.198;2024-01-15T05:08:10;94236.34;;;-8.20;100.00
63097;BME280;49185;42.320;23.198;2024-01-15T05:10:36;94231.94;;;-8.10;100.00
63097;BME280;49185;42.320;23.198;2024-01-15T05:13:01;94230.91;;;-8.17;100.00
63097;BME280;49185;42.320;23.198;2024-01-15T05:15:26;94226.00;;;-8.20;100.00
63097;BME280;49185;42.320;23.198;2024-01-15T05:17:52;94237.59;;;-8.24;100.00
63097;BME280;49185;42.320;23.198;2024-01-15T05:20:17;94233.38;;;-8.25;100.00
63097;BME280;49185;42.320;23.198;2024-01-15T05:22:43;94239.50;;;-8.26;100.00
63097;BME280;49185;42.320;23.198;2024-01-15T05:25:08;94232.28;;;-8.23;100.00
63097;BME280;49185;42.320;23.198;2024-01-15T05:27:33;94227.56;;;-8.27;100.00
63097;BME280;49185;42.320;23.198;2024-01-15T05:29:59;94224.41;;;-8.21;100.00
63097;BME280;49185;42.320;23.198;2024-01-15T05:32:24;94216.50;;;-8.37;100.00
63097;BME280;49185;42.320;23.198;2024-01-15T05:34:49;94219.97;;;-8.47;100.00
63097;BME280;49185;42.320;23.198;2024-01-15T05:37:15;94210.47;;;-8.28;100.00
63097;BME280;49185;42.320;23.198;2024-01-15T05:39:40;94215.63;;;-8.28;100.00
63097;BME280;49185;42.320;23.198;2024-01-15T05:42:06;94208.09;;;-8.40;100.00
63097;BME280;49185;42.320;23.198;2024-01-15T05:44:31;94209.00;;;-8.49;100.00
63097;BME280;49185;42.320;23.198;2024-01-15T05:46:56;94208.38;;;-8.61;100.00
63097;BME280;49185;42.320;23.198;2024-01-15T05:49:22;94204.34;;;-8.63;100.00
63097;BME280;49185;42.320;23.198;2024-01-15T05:51:47;94207.47;;;-8.69;100.00
63097;BME280;49185;42.320;23.198;2024-01-15T05:54:13;94211.78;;;-8.88;100.00
63097;BME280;49185;42.320;23.198;2024-01-15T05:56:38;94199.16;;;-8.81;100.00
63097;BME280;49185;42.320;23.198;2024-01-15T05:59:03;94192.88;;;-8.79;100.00
63097;BME280;49185;42.320;23.198;2024-01-15T06:01:29;94198.22;;;-8.90;100.00
63097;BME280;49185;42.320;23.198;2024-01-15T06:03:54;94195.00;;;-8.92;100.00
63097;BME280;49185;42.320;23.198;2024-01-15T06:06:19;94197.47;;;-9.00;100.00
63097;BME280;49185;42.320;23.198;2024-01-15T06:08:45;94197.31;;;-8.99;100.00
63097;BME280;49185;42.320;23.198;2024-01-15T06:11:10;94186.44;;;-8.92;100.00
63097;BME280;49185;42.320;23.198;2024-01-15T06:13:36;94189.13;;;-8.84;100.00
63097;BME280;49185;42.320;23.198;2024-01-15T06:16:01;94193.53;;;-8.76;100.00
63097;BME280;49185;42.320;23.198;2024-01-15T06:18:26;94198.22;;;-8.62;100.00
63097;BME280;49185;42.320;23.198;2024-01-15T06:20:52;94201.84;;;-8.55;100.00
63097;BME280;49185;42.320;23.198;2024-01-15T06:23:17;94206.56;;;-8.50;100.00
63097;BME280;49185;42.320;23.198;2024-01-15T06:25:42;94200.97;;;-8.28;100.00
63097;BME280;49185;42.320;23.198;2024-01-15T06:28:08;94194.09;;;-8.19;100.00
63097;BME280;49185;42.320;23.198;2024-01-15T06:30:33;94202.66;;;-8.18;100.00
63097;BME280;49185;42.320;23.198;2024-01-15T06:32:58;94208.84;;;-7.93;100.00
63097;BME280;49185;42.320;23.198;2024-01-15T06:35:24;94208.34;;;-7.79;100.00
63097;BME280;49185;42.320;23.198;2024-01-15T06:37:49;94209.88;;;-7.68;100.00
63097;BME280;49185;42.320;23.198;2024-01-15T06:40:15;94201.72;;;-7.55;100.00
63097;BME280;49185;42.320;23.198;2024-01-15T06:42:40;94207.28;;;-7.42;100.00
63097;BME280;49185;42.320;23.198;2024-01-15T06:45:06;94208.78;;;-7.39;100.00
63097;BME280;49185;42.320;23.198;2024-01-15T06:47:32;94204.97;;;-7.27;100.00
63097;BME280;49185;42.320;23.198;2024-01-15T06:49:57;94211.72;;;-7.08;100.00
63097;BME280;49185;42.320;23.198;2024-01-15T06:52:22;94206.41;;;-6.98;100.00
63097;BME280;49185;42.320;23.198;2024-01-15T06:54:48;94213.00;;;-6.78;100.00
63097;BME280;49185;42.320;23.198;2024-01-15T06:57:14;94206.44;;;-6.56;100.00
63097;BME280;49185;42.320;23.198;2024-01-15T06:59:39;94211.03;;;-6.33;100.00
63097;BME280;49185;42.320;23.198;2024-01-15T07:02:05;94203.59;;;-6.20;100.00
63097;BME280;49185;42.320;23.198;2024-01-15T07:04:30;94187.13;;;-5.78;100.00
63097;BME280;49185;42.320;23.198;2024-01-15T07:06:56;94192.63;;;-5.64;100.00
63097;BME280;49185;42.320;23.198;2024-01-15T07:09:21;94191.03;;;-5.74;100.00
63097;BME280;49185;42.320;23.198;2024-01-15T07:11:46;94186.94;;;-5.60;100.00
63097;BME280;49185;42.320;23.198;2024-01-15T07:14:12;94186.94;;;-5.35;100.00
63097;BME280;49185;42.320;23.198;2024-01-15T07:16:38;94185.06;;;-4.93;100.00
63097;BME280;49185;42.320;23.198;2024-01-15T07:19:03;94186.56;;;-4.60;100.00
63097;BME280;49185;42.320;23.198;2024-01-15T07:21:29;94181.88;;;-4.25;100.00
63097;BME280;49185;42.320;23.198;2024-01-15T07:23:54;94176.56;;;-4.08;100.00
63097;BME280;49185;42.320;23.198;2024-01-15T07:26:19;94179.84;;;-3.91;100.00
63097;BME280;49185;42.320;23.198;2024-01-15T07:28:45;94182.22;;;-4.05;100.00
63097;BME280;49185;42.320;23.198;2024-01-15T07:31:10;94189.88;;;-4.11;100.00
63097;BME280;49185;42.320;23.198;2024-01-15T07:33:35;94183.66;;;-4.02;100.00
63097;BME280;49185;42.320;23.198;2024-01-15T07:36:01;94184.81;;;-4.05;100.00
63097;BME280;49185;42.320;23.198;2024-01-15T07:38:26;94190.41;;;-4.16;100.00
63097;BME280;49185;42.320;23.198;2024-01-15T07:40:52;94187.41;;;-4.05;100.00
63097;BME280;49185;42.320;23.198;2024-01-15T07:43:17;94180.41;;;-4.04;100.00
63097;BME280;49185;42.320;23.198;2024-01-15T07:45:42;94180.19;;;-4.17;100.00
63097;BME280;49185;42.320;23.198;2024-01-15T07:48:08;94180.50;;;-4.12;100.00
63097;BME280;49185;42.320;23.198;2024-01-15T07:50:33;94181.59;;;-3.84;100.00
63097;BME280;49185;42.320;23.198;2024-01-15T07:52:58;94195.06;;;-3.80;100.00
63097;BME280;49185;42.320;23.198;2024-01-15T07:55:24;94200.94;;;-3.86;100.00
63097;BME280;49185;42.320;23.198;2024-01-15T07:57:49;94207.00;;;-3.71;100.00
63097;BME280;49185;42.320;23.198;2024-01-15T08:00:15;94200.06;;;-3.55;100.00
63097;BME280;49185;42.320;23.198;2024-01-15T08:02:40;94200.91;;;-3.63;100.00
63097;BME280;49185;42.320;23.198;2024-01-15T08:05:06;94190.38;;;-3.85;100.00
63097;BME280;49185;42.320;23.198;2024-01-15T08:07:31;94196.94;;;-3.97;100.00
63097;BME280;49185;42.320;23.198;2024-01-15T08:09:56;94191.28;;;-3.77;100.00
63097;BME280;49185;42.320;23.198;2024-01-15T08:12:22;94192.16;;;-3.62;100.00
63097;BME280;49185;42.320;23.198;2024-01-15T08:14:47;94193.69;;;-3.53;100.00
63097;BME280;49185;42.320;23.198;2024-01-15T08:17:13;94177.53;;;-3.63;100.00
63097;BME280;49185;42.320;23.198;2024-01-15T08:19:38;94185.28;;;-3.55;100.00
63097;BME280;49185;42.320;23.198;2024-01-15T08:22:03;94183.81;;;-3.19;100.00
63097;BME280;49185;42.320;23.198;2024-01-15T08:24:29;94187.34;;;-2.97;100.00
63097;BME280;49185;42.320;23.198;2024-01-15T08:26:54;94187.88;;;-3.02;100.00
63097;BME280;49185;42.320;23.198;2024-01-15T08:29:19;94194.44;;;-3.06;100.00
63097;BME280;49185;42.320;23.198;2024-01-15T08:31:45;94185.53;;;-3.12;100.00
63097;BME280;49185;42.320;23.198;2024-01-15T08:34:10;94193.25;;;-3.18;100.00
63097;BME280;49185;42.320;23.198;2024-01-15T08:36:36;94179.97;;;-3.09;100.00
63097;BME280;49185;42.320;23.198;2024-01-15T08:39:01;94170.53;;;-3.39;100.00
63097;BME280;49185;42.320;23.198;2024-01-15T08:41:27;94168.44;;;-3.44;100.00
63097;BME280;49185;42.320;23.198;2024-01-15T08:43:52;94163.84;;;-3.57;100.00
63097;BME280;49185;42.320;23.198;2024-01-15T08:46:17;94166.50;;;-3.27;100.00
63097;BME280;49185;42.320;23.198;2024-01-15T08:48:43;94178.38;;;-3.48;100.00
63097;BME280;49185;42.320;23.198;2024-01-15T08:51:08;94153.78;;;-3.22;100.00
63097;BME280;49185;42.320;23.198;2024-01-15T08:53:34;94161.03;;;-3.17;100.00
63097;BME280;49185;42.320;23.198;2024-01-15T08:55:59;94175.66;;;-3.01;100.00
63097;BME280;49185;42.320;23.198;2024-01-15T08:58:24;94154.69;;;-3.00;100.00
63097;BME280;49185;42.320;23.198;2024-01-15T09:00:50;94165.88;;;-3.29;100.00
63097;BME280;49185;42.320;23.198;2024-01-15T09:03:16;94145.50;;;-3.40;100.00
63097;BME280;49185;42.320;23.198;2024-01-15T09:05:41;94154.63;;;-3.45;100.00
63097;BME280;49185;42.320;23.198;2024-01-15T09:08:07;94164.00;;;-3.06;100.00
63097;BME280;49185;42.320;23.198;2024-01-15T09:10:32;94147.41;;;-2.60;100.00
63097;BME280;49185;42.320;23.198;2024-01-15T09:12:57;94145.56;;;-1.43;100.00
63097;BME280;49185;42.320;23.198;2024-01-15T09:15:23;94139.03;;;-0.98;100.00
63097;BME280;49185;42.320;23.198;2024-01-15T09:17:48;94147.03;;;-0.23;100.00
63097;BME280;49185;42.320;23.198;2024-01-15T09:20:16;94138.06;;;0.00;100.00
63097;BME280;49185;42.320;23.198;2024-01-15T09:22:42;94147.75;;;-0.42;100.00
63097;BME280;49185;42.320;23.198;2024-01-15T09:25:10;94134.34;;;-0.74;100.00
63097;BME280;49185;42.320;23.198;2024-01-15T09:27:36;94133.97;;;-1.06;100.00
63097;BME280;49185;42.320;23.198;2024-01-15T09:30:05;94134.63;;;-0.55;100.00
63097;BME280;49185;42.320;23.198;2024-01-15T09:32:30;94127.59;;;-0.55;100.00
63097;BME280;49185;42.320;23.198;2024-01-15T09:34:56;94117.13;;;0.07;100.00
63097;BME280;49185;42.320;23.198;2024-01-15T09:37:21;94113.97;;;0.45;100.00
63097;BME280;49185;42.320;23.198;2024-01-15T09:39:47;94082.94;;;0.62;100.00
63097;BME280;49185;42.320;23.198;2024-01-15T09:42:12;94085.50;;;0.95;97.71
63097;BME280;49185;42.320;23.198;2024-01-15T09:44:37;94076.88;;;0.88;98.38
63097;BME280;49185;42.320;23.198;2024-01-15T09:47:04;94071.63;;;0.88;98.23
63097;BME280;49185;42.320;23.198;2024-01-15T09:49:30;94051.03;;;1.57;98.08
63097;BME280;49185;42.320;23.198;2024-01-15T09:51:58;94045.66;;;1.83;96.64
63097;BME280;49185;42.320;23.198;2024-01-15T09:54:23;94040.25;;;2.03;96.90
63097;BME280;49185;42.320;23.198;2024-01-15T09:56:49;94041.56;;;1.56;96.75
63097;BME280;49185;42.320;23.198;2024-01-15T09:59:18;94046.50;;;1.39;95.45
63097;BME280;49185;42.320;23.198;2024-01-15T10:01:44;94044.88;;;1.38;95.93
63097;BME280;49185;42.320;23.198;2024-01-15T10:04:11;94037.75;;;1.51;97.50
63097;BME280;49185;42.320;23.198;2024-01-15T10:06:36;94035.38;;;1.82;97.79
63097;BME280;49185;42.320;23.198;2024-01-15T10:09:02;94015.13;;;1.89;96.90
63097;BME280;49185;42.320;23.198;2024-01-15T10:11:28;94009.31;;;1.87;93.89
63097;BME280;49185;42.320;23.198;2024-01-15T10:13:54;94001.81;;;1.59;92.89
63097;BME280;49185;42.320;23.198;2024-01-15T10:16:19;93997.06;;;1.42;94.37
63097;BME280;49185;42.320;23.198;2024-01-15T10:18:45;93985.25;;;1.65;94.28
63097;BME280;49185;42.320;23.198;2024-01-15T10:21:11;93979.47;;;1.56;94.13
63097;BME280;49185;42.320;23.198;2024-01-15T10:23:36;93971.28;;;1.71;93.98
63097;BME280;49185;42.320;23.198;2024-01-15T10:26:03;93976.09;;;1.49;95.03
63097;BME280;49185;42.320;23.198;2024-01-15T10:28:29;93969.34;;;1.28;97.10
63097;BME280;49185;42.320;23.198;2024-01-15T10:30:57;93960.47;;;1.61;96.22
63097;BME280;49185;42.320;23.198;2024-01-15T10:33:23;93965.59;;;1.49;95.74
63097;BME280;49185;42.320;23.198;2024-01-15T10:35:48;93958.53;;;1.49;96.85
63097;BME280;49185;42.320;23.198;2024-01-15T10:38:15;93956.91;;;1.48;95.85
63097;BME280;49185;42.320;23.198;2024-01-15T10:40:40;93953.72;;;1.40;97.58
63097;BME280;49185;42.320;23.198;2024-01-15T10:43:05;93950.78;;;1.29;97.20
63097;BME280;49185;42.320;23.198;2024-01-15T10:45:31;93946.13;;;0.93;99.45
63097;BME280;49185;42.320;23.198;2024-01-15T10:47:56;93941.94;;;0.85;99.14
63097;BME280;49185;42.320;23.198;2024-01-15T10:50:22;93946.50;;;0.97;97.86
63097;BME280;49185;42.320;23.198;2024-01-15T10:52:47;93940.66;;;1.01;99.54
63097;BME280;49185;42.320;23.198;2024-01-15T10:55:13;93923.88;;;1.09;100.00
63097;BME280;49185;42.320;23.198;2024-01-15T10:57:39;93923.69;;;1.42;98.78
63097;BME280;49185;42.320;23.198;2024-01-15T11:00:05;93926.91;;;1.44;98.03
63097;BME280;49185;42.320;23.198;2024-01-15T11:02:32;93925.94;;;1.39;99.80
63097;BME280;49185;42.320;23.198;2024-01-15T11:04:59;93914.88;;;1.37;98.64
63097;BME280;49185;42.320;23.198;2024-01-15T11:07:26;93914.72;;;1.25;97.81
63097;BME280;49185;42.320;23.198;2024-01-15T11:09:52;93923.84;;;1.22;97.50
63097;BME280;49185;42.320;23.198;2024-01-15T11:12:17;93901.69;;;1.11;98.01
63097;BME280;49185;42.320;23.198;2024-01-15T11:14:49;93890.00;;;1.14;98.51
63097;BME280;49185;42.320;23.198;2024-01-15T11:17:16;93911.19;;;1.12;99.40
63097;BME280;49185;42.320;23.198;2024-01-15T11:19:45;93884.13;;;1.19;96.84
63097;BME280;49185;42.320;23.198;2024-01-15T11:24:55;93880.13;;;1.16;96.20
63097;BME280;49185;42.320;23.198;2024-01-15T11:27:40;93869.81;;;1.21;95.68
63097;BME280;49185;42.320;23.198;2024-01-15T11:30:10;93860.84;;;1.36;94.63
63097;BME280;49185;42.320;23.198;2024-01-15T11:32:36;93863.00;;;1.45;95.34
63097;BME280;49185;42.320;23.198;2024-01-15T11:35:02;93855.50;;;1.74;94.03
63097;BME280;49185;42.320;23.198;2024-01-15T11:40:22;93846.91;;;1.85;94.35
63097;BME280;49185;42.320;23.198;2024-01-15T11:42:48;93838.13;;;1.55;95.26
63097;BME280;49185;42.320;23.198;2024-01-15T11:45:19;93831.13;;;1.74;95.39
63097;BME280;49185;42.320;23.198;2024-01-15T11:50:17;93839.09;;;2.22;92.85
63097;BME280;49185;42.320;23.198;2024-01-15T11:52:53;93837.34;;;2.16;91.84
63097;BME280;49185;42.320;23.198;2024-01-15T11:55:31;93825.38;;;2.39;91.01
63097;BME280;49185;42.320;23.198;2024-01-15T11:58:01;93827.88;;;2.82;87.28
63097;BME280;49185;42.320;23.198;2024-01-15T12:00:28;93832.31;;;2.82;88.60
63097;BME280;49185;42.320;23.198;2024-01-15T12:02:54;93816.63;;;3.06;87.83
63097;BME280;49185;42.320;23.198;2024-01-15T12:05:20;93822.91;;;3.04;89.39
63097;BME280;49185;42.320;23.198;2024-01-15T12:07:49;93808.44;;;3.14;89.32
63097;BME280;49185;42.320;23.198;2024-01-15T12:10:17;93803.72;;;3.04;90.25
63097;BME280;49185;42.320;23.198;2024-01-15T12:15:28;93803.19;;;3.14;90.23
63097;BME280;49185;42.320;23.198;2024-01-15T12:17:58;93791.75;;;3.20;90.36
63097;BME280;49185;42.320;23.198;2024-01-15T12:20:28;93795.88;;;3.16;88.81
63097;BME280;49185;42.320;23.198;2024-01-15T12:22:53;93801.31;;;3.02;88.92
63097;BME280;49185;42.320;23.198;2024-01-15T12:25:19;93796.88;;;3.15;91.20
63097;BME280;49185;42.320;23.198;2024-01-15T12:27:45;93795.66;;;3.29;89.38
63097;BME280;49185;42.320;23.198;2024-01-15T12:30:12;93772.47;;;3.26;90.00
63097;BME280;49185;42.320;23.198;2024-01-15T12:32:38;93786.97;;;3.29;90.12
63097;BME280;49185;42.320;23.198;2024-01-15T12:35:05;93793.50;;;3.26;91.36
63097;BME280;49185;42.320;23.198;2024-01-15T12:37:30;93785.63;;;3.26;91.34
63097;BME280;49185;42.320;23.198;2024-01-15T12:39:58;93774.97;;;3.33;90.15
63097;BME280;49185;42.320;23.198;2024-01-15T12:42:24;93757.28;;;3.40;91.63
63097;BME280;49185;42.320;23.198;2024-01-15T12:44:49;93756.94;;;3.60;89.22
63097;BME280;49185;42.320;23.198;2024-01-15T12:47:15;93755.69;;;3.51;89.87
63097;BME280;49185;42.320;23.198;2024-01-15T12:49:40;93758.53;;;3.49;92.00